Clackamas — WDF6614 — position and weather

sailwx.info

Track history (hours):
 
Tides and Currents Weather Stations Pressure Air Temp Water Temp Dewpoint Dewpoint Depression Visibility Wind Speed Wind Dir Waves Ship Positions

Clackamas

Owner: Port o Portland, Portland, OR. More information available from US FCC via Universal Licensing System and Coast Guard Vessel Documentation Center.

Last reported at 2014-Oct-21 11:33 UTC. Time now 2014-Oct-21 12:01 UTC.
Position N 46°12' W 123°45'.

Length 19 m.

Type: Dredging. MMSI: 367476050.

Date/timePositionNaut miles runAvg speedWind from/ knotsBaromVisibWave heightAir tempDewpointWater temp
2014-Oct-21 11:33N 46°12' W 123°45'0 0.0
2014-Oct-21 11:00N 46°12' W 123°45'0 0.0
2014-Oct-21 10:33N 46°12' W 123°45'0 0.0
2014-Oct-21 10:14N 46°12' W 123°45'0 0.0
2014-Oct-21 09:33N 46°12' W 123°45'0 0.0
2014-Oct-21 09:29N 46°12' W 123°45'0 0.0
2014-Oct-21 08:33N 46°12' W 123°45'0 0.0
2014-Oct-21 08:15N 46°12' W 123°45'0 0.0
2014-Oct-21 07:33N 46°12' W 123°45'0 0.0
2014-Oct-21 06:33N 46°12' W 123°45'0 0.0
2014-Oct-21 05:33N 46°12' W 123°45'0 0.0
2014-Oct-21 04:33N 46°12' W 123°45'0 0.0
2014-Oct-21 03:32N 46°12' W 123°45'0 0.0
2014-Oct-21 02:33N 46°12' W 123°45'0 0.0
2014-Oct-21 01:32N 46°12' W 123°45'0 0.0
2014-Oct-21 00:33N 46°12' W 123°45'0 0.0
2014-Oct-20 23:32N 46°12' W 123°45'0 0.0
2014-Oct-20 22:32N 46°12' W 123°45'0 0.0
2014-Oct-20 21:33N 46°12' W 123°45'1 0.7
2014-Oct-20 20:33N 46°13' W 123°45'3 2.5
2014-Oct-20 19:32N 46°14' W 123°42'1 1.0
2014-Oct-20 18:33N 46°15' W 123°41'7 6.7
2014-Oct-20 17:33N 46°16' W 123°32'4 3.1
2014-Oct-20 16:24N 46°15' W 123°27'7 7.8
2014-Oct-20 15:33N 46°15' W 123°36'7 7.0
2014-Oct-20 14:31N 46°12' W 123°45'0 0.0
2014-Oct-20 13:31N 46°12' W 123°45'0 0.0
2014-Oct-20 12:31N 46°12' W 123°45'0 0.0
2014-Oct-20 11:31N 46°12' W 123°45'0 0.0
2014-Oct-20 10:28N 46°12' W 123°45'0 0.0
2014-Oct-20 09:31N 46°12' W 123°45'0 0.0
2014-Oct-20 08:28N 46°12' W 123°45'0 0.0
2014-Oct-20 07:31N 46°12' W 123°45'0 0.0
2014-Oct-20 06:31N 46°12' W 123°45'0 0.0
2014-Oct-20 05:31N 46°12' W 123°45'0 0.0
2014-Oct-20 04:31N 46°12' W 123°45'0 0.0
2014-Oct-20 03:25N 46°12' W 123°45'0 0.0
2014-Oct-20 02:31N 46°12' W 123°45'0 0.0
2014-Oct-20 01:28N 46°12' W 123°45'0 0.0
2014-Oct-20 00:28N 46°12' W 123°45'0 0.0
2014-Oct-19 22:31N 46°12' W 123°45'0 0.0
2014-Oct-19 20:10N 46°12' W 123°45'0 0.0
2014-Oct-19 19:22N 46°12' W 123°45'0 0.0
2014-Oct-19 18:28N 46°12' W 123°45'0 0.0
2014-Oct-19 15:31N 46°12' W 123°45'0 0.0
2014-Oct-19 14:28N 46°12' W 123°45'0 0.0
2014-Oct-19 13:31N 46°12' W 123°45'0 0.0
2014-Oct-19 12:31N 46°12' W 123°45'0 0.0
2014-Oct-19 11:31N 46°12' W 123°45'0 0.0
2014-Oct-19 10:31N 46°12' W 123°45'0 0.0
2014-Oct-19 09:31N 46°12' W 123°45'0 0.0
2014-Oct-19 08:31N 46°12' W 123°45'0 0.0
2014-Oct-19 07:25N 46°12' W 123°45'0 0.0
2014-Oct-19 06:31N 46°12' W 123°45'0 0.0
2014-Oct-19 05:31N 46°12' W 123°45'0 0.0
2014-Oct-19 04:31N 46°12' W 123°45'0 0.0
2014-Oct-19 03:31N 46°12' W 123°45'0 0.0
2014-Oct-19 02:31N 46°12' W 123°45'0 0.0
2014-Oct-19 01:31N 46°12' W 123°45'0 0.0
2014-Oct-19 00:31N 46°12' W 123°45'0 0.0
2014-Oct-18 23:31N 46°12' W 123°45'0 0.0
2014-Oct-18 22:31N 46°12' W 123°45'0 0.0
2014-Oct-18 21:31N 46°12' W 123°45'0 0.0
2014-Oct-18 20:31N 46°12' W 123°45'0 0.0
2014-Oct-18 19:31N 46°12' W 123°45'0 0.0
2014-Oct-18 18:31N 46°12' W 123°45'0 0.0
2014-Oct-18 17:31N 46°12' W 123°45'0 0.0
2014-Oct-18 16:31N 46°12' W 123°45'0 0.0
2014-Oct-18 15:31N 46°12' W 123°45'0 0.0
2014-Oct-18 02:16N 46°12' W 123°45'0 0.0
2014-Oct-18 01:31N 46°12' W 123°45'0 0.0
2014-Oct-18 00:31N 46°12' W 123°45'0 0.0
2014-Oct-17 23:31N 46°12' W 123°45'0 0.0
2014-Oct-17 22:31N 46°12' W 123°45'0 0.0
2014-Oct-17 21:31N 46°12' W 123°45'0 0.0
2014-Oct-17 20:28N 46°12' W 123°45'0 0.0
2014-Oct-17 19:10N 46°12' W 123°45'0 0.0
2014-Oct-16 23:21N 46°12' W 123°45'0 0.0
2014-Oct-16 22:32N 46°12' W 123°45'3 0.1
2014-Oct-15 23:33N 46°14' W 123°43'0 0.1
2014-Oct-15 21:33N 46°14' W 123°43'1 0.8
2014-Oct-15 20:25N 46°14' W 123°42'1 0.9
2014-Oct-15 19:26N 46°14' W 123°43'1 0.6
2014-Oct-15 18:32N 46°15' W 123°43'1 0.6
2014-Oct-15 17:04N 46°14' W 123°42'0 0.6
2014-Oct-15 16:33N 46°14' W 123°42'1 0.6
2014-Oct-15 15:33N 46°14' W 123°43'0 0.0
2014-Oct-15 10:11N 46°14' W 123°43'0 0.0
2014-Oct-15 09:20N 46°14' W 123°43'0 0.0
2014-Oct-15 06:32N 46°14' W 123°43'0 0.0
2014-Oct-15 05:26N 46°14' W 123°43'0 0.0
2014-Oct-15 04:32N 46°14' W 123°43'0 0.0
2014-Oct-15 03:26N 46°14' W 123°43'0 0.0
2014-Oct-15 00:11N 46°14' W 123°43'0 0.0
2014-Oct-14 23:26N 46°14' W 123°43'0 0.0
2014-Oct-14 22:32N 46°14' W 123°43'0 0.4
2014-Oct-14 21:33N 46°14' W 123°42'0 0.2
2014-Oct-14 20:26N 46°14' W 123°42'0 0.1
2014-Oct-14 19:18N 46°14' W 123°43'1 1.0
2014-Oct-14 18:28N 46°14' W 123°42'0 0.0
2014-Oct-14 17:21N 46°14' W 123°42'1 0.6
2014-Oct-14 16:33N 46°15' W 123°41'1 1.2
2014-Oct-14 15:33N 46°14' W 123°42'0 0.2
2014-Oct-14 14:27N 46°14' W 123°43'0 0.0
2014-Oct-14 13:30N 46°14' W 123°43'0 0.0
2014-Oct-14 12:33N 46°14' W 123°43'0 0.0
2014-Oct-14 11:24N 46°14' W 123°43'0 0.0
2014-Oct-14 10:27N 46°14' W 123°43'0 0.0
2014-Oct-14 09:06N 46°14' W 123°43'0 0.0
2014-Oct-14 06:27N 46°14' W 123°43'0 0.0
2014-Oct-14 04:24N 46°14' W 123°43'0 0.0
2014-Oct-14 03:06N 46°14' W 123°43'0 0.0
2014-Oct-14 01:30N 46°14' W 123°43'0 0.0
2014-Oct-14 00:33N 46°14' W 123°43'0 0.0
2014-Oct-13 22:30N 46°14' W 123°43'1 1.2
2014-Oct-13 21:27N 46°15' W 123°41'0 0.0
2014-Oct-13 20:27N 46°15' W 123°41'0 0.0
2014-Oct-13 19:05N 46°15' W 123°41'1 2.1
2014-Oct-13 18:27N 46°14' W 123°43'0 0.1
2014-Oct-13 17:33N 46°14' W 123°43'1 0.8
2014-Oct-13 16:34N 46°14' W 123°41'2 1.8
2014-Oct-13 15:33N 46°14' W 123°44'1 1.0
2014-Oct-13 14:31N 46°14' W 123°43'0 0.0
2014-Oct-13 13:28N 46°14' W 123°43'0 0.0
2014-Oct-13 12:28N 46°14' W 123°43'0 0.0
2014-Oct-13 11:22N 46°14' W 123°43'0 0.0
2014-Oct-13 10:28N 46°14' W 123°43'0 0.0
2014-Oct-13 09:28N 46°14' W 123°43'0 0.0
2014-Oct-13 08:31N 46°14' W 123°43'0 0.0
2014-Oct-13 07:28N 46°14' W 123°43'0 0.0
2014-Oct-13 06:28N 46°14' W 123°43'0 0.0
2014-Oct-13 05:31N 46°14' W 123°43'0 0.0
2014-Oct-13 04:31N 46°14' W 123°43'0 0.0
2014-Oct-13 03:31N 46°14' W 123°43'0 0.0
2014-Oct-13 02:22N 46°14' W 123°43'0 0.0
2014-Oct-13 01:31N 46°14' W 123°43'0 0.0
2014-Oct-13 00:28N 46°14' W 123°43'0 0.0
2014-Oct-12 23:25N 46°14' W 123°43'0 0.0
2014-Oct-12 22:31N 46°14' W 123°43'0 0.1
2014-Oct-12 21:33N 46°14' W 123°43'1 0.5
2014-Oct-12 20:32N 46°15' W 123°43'0 0.3
2014-Oct-12 19:21N 46°15' W 123°43'0 0.1
2014-Oct-12 18:25N 46°15' W 123°43'1 1.0
2014-Oct-12 17:18N 46°15' W 123°42'0 0.1
2014-Oct-12 16:30N 46°15' W 123°41'1 1.1
2014-Oct-12 15:33N 46°15' W 123°43'0 0.4
2014-Oct-12 14:33N 46°15' W 123°42'0 0.3
2014-Oct-12 13:10N 46°14' W 123°43'0 0.0
2014-Oct-12 12:31N 46°14' W 123°43'0 0.0
2014-Oct-12 10:25N 46°14' W 123°43'0 0.0
2014-Oct-12 09:13N 46°14' W 123°43'0 0.0
2014-Oct-12 08:28N 46°14' W 123°43'0 0.0
2014-Oct-12 07:28N 46°14' W 123°43'0 0.0
2014-Oct-12 06:28N 46°14' W 123°43'0 0.0
2014-Oct-12 05:28N 46°14' W 123°43'0 0.0
2014-Oct-12 04:31N 46°14' W 123°43'0 0.0
2014-Oct-12 03:13N 46°14' W 123°43'0 0.0
2014-Oct-12 02:33N 46°14' W 123°43'1 0.8
2014-Oct-12 01:16N 46°15' W 123°42'1 1.2
2014-Oct-12 00:26N 46°14' W 123°43'0 0.0
2014-Oct-11 23:29N 46°14' W 123°43'0 0.0
2014-Oct-11 22:32N 46°14' W 123°43'0 0.0
2014-Oct-11 21:29N 46°14' W 123°43'1 1.4
2014-Oct-11 20:33N 46°15' W 123°41'1 0.4
2014-Oct-11 19:06N 46°15' W 123°42'0 0.0
2014-Oct-11 18:25N 46°15' W 123°42'1 1.0
2014-Oct-11 17:32N 46°15' W 123°43'1 0.9
2014-Oct-11 16:33N 46°15' W 123°42'0 0.4
2014-Oct-11 15:33N 46°14' W 123°42'  
Track history (hours):
 
Tides and Currents Weather Stations Pressure Air Temp Water Temp Dewpoint Dewpoint Depression Visibility Wind Speed Wind Dir Waves Ship Positions

Clackamas

Owner: Port o Portland, Portland, OR. More information available from US FCC via Universal Licensing System and Coast Guard Vessel Documentation Center.

Last reported at 2014-Oct-21 11:33 UTC. Time now 2014-Oct-21 12:01 UTC.
Position N 46°12' W 123°45'.

Length 19 m.

Type: Dredging. MMSI: 367476050.

Date/timePositionNaut miles runAvg speedWind from/ knotsBaromVisibWave heightAir tempDewpointWater temp
2014-Oct-21 11:33N 46°12' W 123°45'0 0.0
2014-Oct-21 11:00N 46°12' W 123°45'0 0.0
2014-Oct-21 10:33N 46°12' W 123°45'0 0.0
2014-Oct-21 10:14N 46°12' W 123°45'0 0.0
2014-Oct-21 09:33N 46°12' W 123°45'0 0.0
2014-Oct-21 09:29N 46°12' W 123°45'0 0.0
2014-Oct-21 08:33N 46°12' W 123°45'0 0.0
2014-Oct-21 08:15N 46°12' W 123°45'0 0.0
2014-Oct-21 07:33N 46°12' W 123°45'0 0.0
2014-Oct-21 06:33N 46°12' W 123°45'0 0.0
2014-Oct-21 05:33N 46°12' W 123°45'0 0.0
2014-Oct-21 04:33N 46°12' W 123°45'0 0.0
2014-Oct-21 03:32N 46°12' W 123°45'0 0.0
2014-Oct-21 02:33N 46°12' W 123°45'0 0.0
2014-Oct-21 01:32N 46°12' W 123°45'0 0.0
2014-Oct-21 00:33N 46°12' W 123°45'0 0.0
2014-Oct-20 23:32N 46°12' W 123°45'0 0.0
2014-Oct-20 22:32N 46°12' W 123°45'0 0.0
2014-Oct-20 21:33N 46°12' W 123°45'1 0.7
2014-Oct-20 20:33N 46°13' W 123°45'3 2.5
2014-Oct-20 19:32N 46°14' W 123°42'1 1.0
2014-Oct-20 18:33N 46°15' W 123°41'7 6.7
2014-Oct-20 17:33N 46°16' W 123°32'4 3.1
2014-Oct-20 16:24N 46°15' W 123°27'7 7.8
2014-Oct-20 15:33N 46°15' W 123°36'7 7.0
2014-Oct-20 14:31N 46°12' W 123°45'0 0.0
2014-Oct-20 13:31N 46°12' W 123°45'0 0.0
2014-Oct-20 12:31N 46°12' W 123°45'0 0.0
2014-Oct-20 11:31N 46°12' W 123°45'0 0.0
2014-Oct-20 10:28N 46°12' W 123°45'0 0.0
2014-Oct-20 09:31N 46°12' W 123°45'0 0.0
2014-Oct-20 08:28N 46°12' W 123°45'0 0.0
2014-Oct-20 07:31N 46°12' W 123°45'0 0.0
2014-Oct-20 06:31N 46°12' W 123°45'0 0.0
2014-Oct-20 05:31N 46°12' W 123°45'0 0.0
2014-Oct-20 04:31N 46°12' W 123°45'0 0.0
2014-Oct-20 03:25N 46°12' W 123°45'0 0.0
2014-Oct-20 02:31N 46°12' W 123°45'0 0.0
2014-Oct-20 01:28N 46°12' W 123°45'0 0.0
2014-Oct-20 00:28N 46°12' W 123°45'0 0.0
2014-Oct-19 22:31N 46°12' W 123°45'0 0.0
2014-Oct-19 20:10N 46°12' W 123°45'0 0.0
2014-Oct-19 19:22N 46°12' W 123°45'0 0.0
2014-Oct-19 18:28N 46°12' W 123°45'0 0.0
2014-Oct-19 15:31N 46°12' W 123°45'0 0.0
2014-Oct-19 14:28N 46°12' W 123°45'0 0.0
2014-Oct-19 13:31N 46°12' W 123°45'0 0.0
2014-Oct-19 12:31N 46°12' W 123°45'0 0.0
2014-Oct-19 11:31N 46°12' W 123°45'0 0.0
2014-Oct-19 10:31N 46°12' W 123°45'0 0.0
2014-Oct-19 09:31N 46°12' W 123°45'0 0.0
2014-Oct-19 08:31N 46°12' W 123°45'0 0.0
2014-Oct-19 07:25N 46°12' W 123°45'0 0.0
2014-Oct-19 06:31N 46°12' W 123°45'0 0.0
2014-Oct-19 05:31N 46°12' W 123°45'0 0.0
2014-Oct-19 04:31N 46°12' W 123°45'0 0.0
2014-Oct-19 03:31N 46°12' W 123°45'0 0.0
2014-Oct-19 02:31N 46°12' W 123°45'0 0.0
2014-Oct-19 01:31N 46°12' W 123°45'0 0.0
2014-Oct-19 00:31N 46°12' W 123°45'0 0.0
2014-Oct-18 23:31N 46°12' W 123°45'0 0.0
2014-Oct-18 22:31N 46°12' W 123°45'0 0.0
2014-Oct-18 21:31N 46°12' W 123°45'0 0.0
2014-Oct-18 20:31N 46°12' W 123°45'0 0.0
2014-Oct-18 19:31N 46°12' W 123°45'0 0.0
2014-Oct-18 18:31N 46°12' W 123°45'0 0.0
2014-Oct-18 17:31N 46°12' W 123°45'0 0.0
2014-Oct-18 16:31N 46°12' W 123°45'0 0.0
2014-Oct-18 15:31N 46°12' W 123°45'0 0.0
2014-Oct-18 02:16N 46°12' W 123°45'0 0.0
2014-Oct-18 01:31N 46°12' W 123°45'0 0.0
2014-Oct-18 00:31N 46°12' W 123°45'0 0.0
2014-Oct-17 23:31N 46°12' W 123°45'0 0.0
2014-Oct-17 22:31N 46°12' W 123°45'0 0.0
2014-Oct-17 21:31N 46°12' W 123°45'0 0.0
2014-Oct-17 20:28N 46°12' W 123°45'0 0.0
2014-Oct-17 19:10N 46°12' W 123°45'0 0.0
2014-Oct-16 23:21N 46°12' W 123°45'0 0.0
2014-Oct-16 22:32N 46°12' W 123°45'3 0.1
2014-Oct-15 23:33N 46°14' W 123°43'0 0.1
2014-Oct-15 21:33N 46°14' W 123°43'1 0.8
2014-Oct-15 20:25N 46°14' W 123°42'1 0.9
2014-Oct-15 19:26N 46°14' W 123°43'1 0.6
2014-Oct-15 18:32N 46°15' W 123°43'1 0.6
2014-Oct-15 17:04N 46°14' W 123°42'0 0.6
2014-Oct-15 16:33N 46°14' W 123°42'1 0.6
2014-Oct-15 15:33N 46°14' W 123°43'0 0.0
2014-Oct-15 10:11N 46°14' W 123°43'0 0.0
2014-Oct-15 09:20N 46°14' W 123°43'0 0.0
2014-Oct-15 06:32N 46°14' W 123°43'0 0.0
2014-Oct-15 05:26N 46°14' W 123°43'0 0.0
2014-Oct-15 04:32N 46°14' W 123°43'0 0.0
2014-Oct-15 03:26N 46°14' W 123°43'0 0.0
2014-Oct-15 00:11N 46°14' W 123°43'0 0.0
2014-Oct-14 23:26N 46°14' W 123°43'0 0.0
2014-Oct-14 22:32N 46°14' W 123°43'0 0.4
2014-Oct-14 21:33N 46°14' W 123°42'0 0.2
2014-Oct-14 20:26N 46°14' W 123°42'0 0.1
2014-Oct-14 19:18N 46°14' W 123°43'1 1.0
2014-Oct-14 18:28N 46°14' W 123°42'0 0.0
2014-Oct-14 17:21N 46°14' W 123°42'1 0.6
2014-Oct-14 16:33N 46°15' W 123°41'1 1.2
2014-Oct-14 15:33N 46°14' W 123°42'0 0.2
2014-Oct-14 14:27N 46°14' W 123°43'0 0.0
2014-Oct-14 13:30N 46°14' W 123°43'0 0.0
2014-Oct-14 12:33N 46°14' W 123°43'0 0.0
2014-Oct-14 11:24N 46°14' W 123°43'0 0.0
2014-Oct-14 10:27N 46°14' W 123°43'0 0.0
2014-Oct-14 09:06N 46°14' W 123°43'0 0.0
2014-Oct-14 06:27N 46°14' W 123°43'0 0.0
2014-Oct-14 04:24N 46°14' W 123°43'0 0.0
2014-Oct-14 03:06N 46°14' W 123°43'0 0.0
2014-Oct-14 01:30N 46°14' W 123°43'0 0.0
2014-Oct-14 00:33N 46°14' W 123°43'0 0.0
2014-Oct-13 22:30N 46°14' W 123°43'1 1.2
2014-Oct-13 21:27N 46°15' W 123°41'0 0.0
2014-Oct-13 20:27N 46°15' W 123°41'0 0.0
2014-Oct-13 19:05N 46°15' W 123°41'1 2.1
2014-Oct-13 18:27N 46°14' W 123°43'0 0.1
2014-Oct-13 17:33N 46°14' W 123°43'1 0.8
2014-Oct-13 16:34N 46°14' W 123°41'2 1.8
2014-Oct-13 15:33N 46°14' W 123°44'1 1.0
2014-Oct-13 14:31N 46°14' W 123°43'0 0.0
2014-Oct-13 13:28N 46°14' W 123°43'0 0.0
2014-Oct-13 12:28N 46°14' W 123°43'0 0.0
2014-Oct-13 11:22N 46°14' W 123°43'0 0.0
2014-Oct-13 10:28N 46°14' W 123°43'0 0.0
2014-Oct-13 09:28N 46°14' W 123°43'0 0.0
2014-Oct-13 08:31N 46°14' W 123°43'0 0.0
2014-Oct-13 07:28N 46°14' W 123°43'0 0.0
2014-Oct-13 06:28N 46°14' W 123°43'0 0.0
2014-Oct-13 05:31N 46°14' W 123°43'0 0.0
2014-Oct-13 04:31N 46°14' W 123°43'0 0.0
2014-Oct-13 03:31N 46°14' W 123°43'0 0.0
2014-Oct-13 02:22N 46°14' W 123°43'0 0.0
2014-Oct-13 01:31N 46°14' W 123°43'0 0.0
2014-Oct-13 00:28N 46°14' W 123°43'0 0.0
2014-Oct-12 23:25N 46°14' W 123°43'0 0.0
2014-Oct-12 22:31N 46°14' W 123°43'0 0.1
2014-Oct-12 21:33N 46°14' W 123°43'1 0.5
2014-Oct-12 20:32N 46°15' W 123°43'0 0.3
2014-Oct-12 19:21N 46°15' W 123°43'0 0.1
2014-Oct-12 18:25N 46°15' W 123°43'1 1.0
2014-Oct-12 17:18N 46°15' W 123°42'0 0.1
2014-Oct-12 16:30N 46°15' W 123°41'1 1.1
2014-Oct-12 15:33N 46°15' W 123°43'0 0.4
2014-Oct-12 14:33N 46°15' W 123°42'0 0.3
2014-Oct-12 13:10N 46°14' W 123°43'0 0.0
2014-Oct-12 12:31N 46°14' W 123°43'0 0.0
2014-Oct-12 10:25N 46°14' W 123°43'0 0.0
2014-Oct-12 09:13N 46°14' W 123°43'0 0.0
2014-Oct-12 08:28N 46°14' W 123°43'0 0.0
2014-Oct-12 07:28N 46°14' W 123°43'0 0.0
2014-Oct-12 06:28N 46°14' W 123°43'0 0.0
2014-Oct-12 05:28N 46°14' W 123°43'0 0.0
2014-Oct-12 04:31N 46°14' W 123°43'0 0.0
2014-Oct-12 03:13N 46°14' W 123°43'0 0.0
2014-Oct-12 02:33N 46°14' W 123°43'1 0.8
2014-Oct-12 01:16N 46°15' W 123°42'1 1.2
2014-Oct-12 00:26N 46°14' W 123°43'0 0.0
2014-Oct-11 23:29N 46°14' W 123°43'0 0.0
2014-Oct-11 22:32N 46°14' W 123°43'0 0.0
2014-Oct-11 21:29N 46°14' W 123°43'1 1.4
2014-Oct-11 20:33N 46°15' W 123°41'1 0.4
2014-Oct-11 19:06N 46°15' W 123°42'0 0.0
2014-Oct-11 18:25N 46°15' W 123°42'1 1.0
2014-Oct-11 17:32N 46°15' W 123°43'1 0.9
2014-Oct-11 16:33N 46°15' W 123°42'0 0.4
2014-Oct-11 15:33N 46°14' W 123°42'  

Dump ship's entire track history